Latest Weather Observations for Coles Point

IDS60801

Issued at 6:35 am CST Wednesday 17 September 2014 (issued every 30 minutes, with the page automatically refreshed every 10 minutes)

About weather observations | Map of weather stations | Latest weather observations for SA | Other Formats
Station Details ID: 018191 Name: COLES POINT Lat: -34.37 Lon: 135.37 Height: 28.0 m
Data from the previous 72 hours. | See also: Recent months at Coles Point
Date/Time
CST
Temp
°C
App
Temp
°C
Dew
Point
Rel
Hum
%
Delta-T
°C
Wind Press
QNH
hPa
Press
MSL
hPa
Rain
since 9 am
mm
Dir
 
Spd
km/h
Gust
km/h
Spd
kts
Gust
kts
17/06:30am 10.1 7.9 7.7 85 1.1 S 9 13 5 7 1021.7 1021.7 1.8
17/06:00am 10.5 8.4 8.3 86 1.1 S 9 11 5 6 1021.4 1021.4 1.8
17/05:30am 10.2 7.9 7.6 84 1.2 S 9 13 5 7 1021.2 1021.2 1.8
17/05:00am 10.9 8.3 7.8 81 1.5 S 11 19 6 10 1020.8 1020.8 1.8
17/04:30am 12.0 8.5 8.8 81 1.6 SW 17 22 9 12 1020.8 1020.8 1.8
17/04:00am 12.0 8.1 8.7 80 1.6 SW 19 24 10 13 1020.6 1020.6 1.8
17/03:30am 12.0 8.1 8.7 80 1.6 SW 19 24 10 13 1020.6 1020.6 1.8
17/03:00am 11.9 7.8 8.0 77 1.9 SSW 19 24 10 13 1020.6 1020.6 1.8
17/02:30am 12.2 8.3 8.5 78 1.8 SW 19 26 10 14 1020.7 1020.7 1.8
17/02:00am 12.2 8.2 8.1 76 2.0 SW 19 24 10 13 1020.7 1020.7 1.8
17/01:30am 12.2 8.2 8.1 76 2.0 SW 19 26 10 14 1020.9 1020.9 1.8
17/01:00am 12.2 8.5 8.1 76 2.0 SW 17 22 9 12 1021.0 1021.0 1.8
17/12:30am 12.6 9.0 8.3 75 2.1 SW 17 20 9 11 1021.1 1021.1 1.8
17/12:00am 12.6 9.8 8.7 77 1.9 WSW 13 19 7 10 1021.4 1021.4 1.8
 
Date/Time
CST
Temp
°C
App
Temp
°C
Dew
Point
Rel
Hum
%
Delta-T
°C
Wind Press
QNH
hPa
Press
MSL
hPa
Rain
since 9 am
mm
Dir
 
Spd
km/h
Gust
km/h
Spd
kts
Gust
kts
16/11:30pm 12.1 9.2 8.2 77 1.9 WSW 13 19 7 10 1021.6 1021.6 1.8
16/11:00pm 12.4 9.3 7.3 71 2.5 SW 13 17 7 9 1021.7 1021.7 1.8
16/10:30pm 12.4 9.5 6.7 68 2.7 WSW 11 17 6 9 1021.4 1021.4 1.8
16/10:00pm 11.5 9.1 7.0 74 2.2 SW 9 15 5 8 1021.6 1021.6 1.8
16/09:30pm 12.8 9.3 7.3 69 2.7 SW 15 20 8 11 1021.5 1021.5 1.8
16/09:00pm 12.5 9.1 5.7 63 3.2 SW 13 20 7 11 1021.3 1021.3 1.8
16/08:30pm 11.8 7.7 6.1 68 2.7 SW 17 20 9 11 1021.2 1021.2 1.8
16/08:00pm 12.2 9.2 7.5 73 2.3 SW 13 19 7 10 1021.0 1021.0 1.8
16/07:30pm 11.7 8.4 6.6 71 2.4 SW 13 17 7 9 1020.6 1020.6 1.8
16/07:00pm 11.8 8.7 7.3 74 2.2 SW 13 17 7 9 1020.3 1020.3 1.8
16/06:30pm 12.7 8.7 8.4 75 2.1 SW 19 26 10 14 1020.1 1020.0 1.8
16/06:00pm 13.3 8.8 6.9 65 3.1 WSW 20 26 11 14 1019.7 1019.6 1.8
16/05:30pm 13.5 9.1 7.5 67 2.9 SW 20 26 11 14 1019.3 1019.2 1.8
16/05:00pm 13.4 9.1 8.0 70 2.7 SSW 20 28 11 15 1019.0 1018.9 1.8
16/04:30pm 14.1 10.2 8.5 69 2.8 SW 19 24 10 13 1018.8 1018.7 1.8
16/04:00pm 14.0 10.0 8.4 69 2.8 SSW 19 24 10 13 1018.7 1018.6 1.8
16/03:30pm 14.3 10.7 8.5 68 2.9 SSW 17 22 9 12 1018.5 1018.4 1.8
16/03:00pm 13.8 10.9 9.5 75 2.2 SSW 15 20 8 11 1018.5 1018.4 1.8
16/02:30pm 14.1 10.8 9.5 74 2.4 SSW 17 24 9 13 1018.5 1018.4 1.8
16/02:00pm 14.6 12.1 11.2 80 1.8 SW 15 20 8 11 1018.6 1018.5 1.8
16/01:30pm 15.1 12.9 10.9 76 2.2 SSW 13 17 7 9 1018.6 1018.5 1.8
16/01:00pm 13.8 11.0 11.3 85 1.3 SSW 17 22 9 12 1018.9 1018.8 1.8
16/12:30pm 13.4 10.4 11.8 90 0.9 SSW 19 26 10 14 1019.1 1019.0 1.8
16/12:00pm 13.2 9.6 10.4 83 1.5 SW 20 30 11 16 1019.6 1019.5 1.4
16/11:30am 15.4 13.3 11.0 75 2.3 W 13 19 7 10 1019.6 1019.5 0.0
16/11:00am 14.9 12.6 10.3 74 2.4 W 13 19 7 10 1020.1 1020.0 0.0
16/10:30am 14.0 12.0 11.5 85 1.3 WNW 13 17 7 9 1020.2 1020.2 0.0
16/10:00am 12.8 9.3 11.0 89 0.9 WSW 20 28 11 15 1020.4 1020.4 0.0
16/09:30am 15.0 12.7 10.6 75 2.3 W 13 17 7 9 1020.2 1020.2 0.0
16/09:00am 14.7 13.1 10.3 75 2.3 W 9 13 5 7 1020.0 1019.9 0.0
16/08:30am 14.3 12.3 10.3 77 2.1 W 11 15 6 8 1020.0 1019.9 0.0
16/08:00am 14.0 12.3 10.0 77 2.1 W 9 15 5 8 1019.7 1019.6 0.0
16/07:30am 13.4 11.7 10.0 80 1.7 W 9 15 5 8 1019.7 1019.6 0.0
16/07:00am 13.0 10.9 9.6 80 1.7 WSW 11 17 6 9 1019.6 1019.5 0.0
16/06:30am 12.4 10.6 9.4 82 1.5 WSW 9 15 5 8 1019.5 1019.4 0.0
16/06:00am 12.6 10.1 9.8 83 1.4 WSW 13 19 7 10 1019.3 1019.2 0.0
16/05:30am 12.6 9.3 9.6 82 1.5 WSW 17 22 9 12 1019.2 1019.1 0.0
16/05:00am 12.3 9.4 9.5 83 1.4 WSW 15 22 8 12 1019.1 1019.0 0.0
16/04:30am 12.7 9.4 9.5 81 1.6 WSW 17 24 9 13 1019.0 1018.9 0.0
16/04:00am 12.6 9.3 9.4 81 1.6 WSW 17 26 9 14 1018.9 1018.8 0.0
16/03:30am 12.9 9.3 9.7 81 1.6 WSW 19 24 10 13 1018.9 1018.8 0.0
16/03:00am 12.7 9.5 9.9 83 1.4 WSW 17 20 9 11 1018.8 1018.7 0.0
16/02:30am 12.8 9.6 10.0 83 1.4 WSW 17 22 9 12 1019.0 1018.9 0.0
16/02:00am 13.0 9.4 10.0 82 1.5 WSW 19 24 10 13 1019.2 1019.1 0.0
16/01:30am 13.4 9.7 10.0 80 1.7 WSW 20 26 11 14 1019.3 1019.2 0.0
16/01:00am 13.1 9.6 10.3 83 1.5 WSW 19 24 10 13 1019.5 1019.4 0.0
16/12:30am 13.3 10.4 11.0 86 1.2 SW 17 20 9 11 1019.6 1019.5 0.0
16/12:00am 12.5 10.5 10.2 86 1.2 SW 11 17 6 9 1019.8 1019.7 0.0
 
Date/Time
CST
Temp
°C
App
Temp
°C
Dew
Point
Rel
Hum
%
Delta-T
°C
Wind Press
QNH
hPa
Press
MSL
hPa
Rain
since 9 am
mm
Dir
 
Spd
km/h
Gust
km/h
Spd
kts
Gust
kts
15/11:30pm 12.4 10.4 10.1 86 1.2 SW 11 15 6 8 1019.8 1019.7 0.0
15/11:00pm 12.2 10.2 10.1 87 1.1 SW 11 15 6 8 1019.9 1019.8 0.0
15/10:30pm 12.1 10.1 10.0 87 1.1 SW 11 13 6 7 1020.0 1019.9 0.0
15/10:00pm 12.6 10.2 10.1 85 1.3 SW 13 17 7 9 1020.2 1020.2 0.0
15/09:30pm 12.4 10.0 10.1 86 1.2 SW 13 17 7 9 1020.2 1020.2 0.0
15/09:00pm 12.4 10.6 9.6 83 1.4 SSW 9 15 5 8 1020.1 1020.0 0.0
15/08:30pm 13.2 10.5 10.2 82 1.5 SSW 15 19 8 10 1020.2 1020.2 0.0
15/08:00pm 13.6 10.5 10.2 80 1.8 SW 17 22 9 12 1019.9 1019.8 0.0
15/07:30pm 13.0 10.6 10.0 82 1.5 SSW 13 19 7 10 1019.6 1019.5 0.0
15/07:00pm 13.6 10.5 10.4 81 1.7 SW 17 20 9 11 1019.5 1019.4 0.0
15/06:30pm 13.3 10.4 9.7 79 1.8 SSW 15 20 8 11 1019.1 1019.0 0.0
15/06:00pm 14.0 11.1 9.6 75 2.3 SSW 15 20 8 11 1018.9 1018.8 0.0
15/05:30pm 14.7 11.1 9.7 72 2.6 SSW 19 26 10 14 1018.7 1018.6 0.0
15/05:00pm 15.4 12.0 10.4 72 2.6 SW 19 24 10 13 1018.5 1018.4 0.0
15/04:30pm 15.8 12.1 10.1 69 3.0 SW 20 26 11 14 1018.4 1018.3 0.0
15/04:00pm 16.2 12.0 9.6 65 3.4 SSW 22 28 12 15 1017.9 1017.9 0.0
15/03:30pm 16.3 12.6 10.2 67 3.2 SSW 20 26 11 14 1017.8 1017.8 0.0
15/03:00pm 16.7 12.9 11.0 69 3.1 SSW 22 28 12 15 1017.9 1017.9 0.0
15/02:30pm 16.8 12.2 10.9 68 3.2 SW 26 33 14 18 1017.9 1017.9 0.0
15/02:00pm 16.8 12.2 11.1 69 3.1 SW 26 33 14 18 1017.8 1017.8 0.0
15/01:30pm 15.4 12.3 12.3 82 1.7 SSW 20 28 11 15 1017.8 1017.8 0.0
15/01:00pm 16.5 11.9 11.0 70 3.0 SW 26 33 14 18 1018.0 1018.0 0.0
15/12:30pm 16.3 12.2 11.5 73 2.6 SW 24 32 13 17 1018.1 1018.1 0.0
15/12:00pm 17.2 12.5 10.8 66 3.4 SSW 26 35 14 19 1018.1 1018.1 0.0
15/11:30am 16.8 12.5 10.9 68 3.2 SSW 24 32 13 17 1018.1 1018.1 0.0
15/11:00am 16.9 11.7 10.1 64 3.6 SSW 28 37 15 20 1018.1 1018.1 0.0
15/10:30am 16.8 12.0 11.7 72 2.8 SW 28 35 15 19 1018.0 1018.0 0.0
15/10:00am 15.6 10.4 10.4 71 2.7 SW 28 37 15 20 1018.0 1018.0 0.0
15/09:30am 16.1 11.0 10.6 70 2.9 SSW 28 39 15 21 1017.6 1017.6 0.0
15/09:00am 15.0 9.4 10.2 73 2.5 SSW 30 41 16 22 1017.4 1017.4 0.0
15/08:30am 15.1 10.5 11.1 77 2.1 SSW 26 37 14 20 1017.1 1017.1 0.0
15/08:00am 15.1 10.1 11.1 77 2.1 SSW 28 37 15 20 1016.7 1016.7 0.0
15/07:30am 14.4 9.3 10.6 78 2.0 SSW 28 39 15 21 1016.3 1016.3 0.0
15/07:00am 14.2 9.5 10.6 79 1.9 SSW 26 41 14 22 1015.9 1015.9 0.0
15/06:30am 14.6 9.8 10.2 75 2.3 SSW 26 37 14 20 1015.5 1015.5 0.0
15/06:00am 14.6 9.1 10.4 76 2.2 SSW 30 41 16 22 1015.1 1015.1 0.0
15/05:30am 14.6 10.0 11.2 80 1.8 SSW 26 33 14 18 1014.5 1014.5 0.0
15/05:00am 14.4 9.7 10.8 79 1.9 SSW 26 39 14 21 1014.1 1014.1 0.0
15/04:30am 14.6 9.7 11.2 80 1.8 SSW 28 37 15 20 1013.7 1013.7 0.0
15/04:00am 14.6 9.4 11.7 83 1.6 SSW 30 41 16 22 1013.6 1013.6 0.0
15/03:30am 14.6 9.8 11.7 83 1.6 SSW 28 39 15 21 1013.0 1013.0 0.0
15/03:00am 14.8 10.1 11.9 83 1.6 SSW 28 37 15 20 1012.7 1012.7 0.0
15/02:30am 14.7 9.9 11.8 83 1.6 SSW 28 37 15 20 1012.2 1012.2 0.0
15/02:00am 14.6 11.3 14.0 96 0.3 SW 24 33 13 18 1012.0 1012.0 0.0
15/01:30am 14.8 12.9 14.3 97 0.3 SW 17 24 9 13 1011.7 1011.7 0.0
15/01:00am 14.9 13.4 14.3 96 0.3 SW 15 22 8 12 1011.3 1011.3 0.0
15/12:30am 15.0 15.0 14.2 95 0.5 W 7 9 4 5 1011.2 1011.2 0.0
15/12:00am 15.0 14.6 14.0 94 0.6 WNW 9 13 5 7 1011.1 1011.1 0.0
 
Date/Time
CST
Temp
°C
App
Temp
°C
Dew
Point
Rel
Hum
%
Delta-T
°C
Wind Press
QNH
hPa
Press
MSL
hPa
Rain
since 9 am
mm
Dir
 
Spd
km/h
Gust
km/h
Spd
kts
Gust
kts
14/11:30pm 15.1 13.8 13.8 92 0.7 NW 13 19 7 10 1011.0 1011.0 0.0
14/11:00pm 15.1 13.5 13.8 92 0.7 NW 15 24 8 13 1011.3 1011.3 0.0
14/10:30pm 15.1 12.6 13.5 90 0.9 NW 19 26 10 14 1011.7 1011.7 0.0
14/10:00pm 15.2 12.6 13.2 88 1.1 NW 19 26 10 14 1012.0 1012.0 0.0
14/09:30pm 15.4 12.6 13.2 87 1.2 NW 20 32 11 17 1012.4 1012.4 0.0
14/09:00pm 15.5 12.9 13.2 86 1.3 NW 19 28 10 15 1012.4 1012.4 0.0
14/08:30pm 15.4 12.6 12.5 83 1.6 NW 19 26 10 14 1012.3 1012.3 0.0
14/08:00pm 15.4 12.3 12.3 82 1.7 NW 20 30 11 16 1012.3 1012.3 0.0
14/07:30pm 15.5 11.3 12.3 81 1.8 NW 26 37 14 20 1012.3 1012.3 0.0
14/07:00pm 15.5 11.0 11.5 77 2.2 NW 26 37 14 20 1012.1 1012.1 0.0
14/06:30pm 15.4 11.4 11.8 79 2.0 NW 24 37 13 20 1012.0 1012.0 0.0
14/06:00pm 15.6 11.2 11.6 77 2.2 NW 26 35 14 19 1011.9 1011.9 0.0
14/05:30pm 15.9 11.5 11.7 76 2.3 NW 26 35 14 19 1011.8 1011.8 0.0
14/05:00pm 16.4 12.5 12.0 75 2.4 NW 24 37 13 20 1011.9 1011.9 0.0
14/04:30pm 16.8 12.3 12.7 77 2.3 NW 28 35 15 19 1011.7 1011.7 0.0
14/04:00pm 17.2 13.7 13.5 79 2.1 NW 24 35 13 19 1011.5 1011.5 0.0
14/03:30pm 17.2 13.9 14.1 82 1.8 NW 24 35 13 19 1011.5 1011.5 0.0
14/03:00pm 17.9 14.7 14.2 79 2.1 NW 24 33 13 18 1011.3 1011.3 0.0
14/02:30pm 19.1 16.4 13.5 70 3.2 NW 20 32 11 17 1011.3 1011.3 0.0
14/02:00pm 19.9 15.7 9.8 52 5.4 NNW 22 30 12 16 1011.3 1011.3 0.0
14/01:30pm 21.2 17.4 9.8 48 6.1 NNW 20 32 11 17 1011.3 1011.3 0.0
14/01:00pm 23.1 18.8 8.0 38 8.0 NW 20 37 11 20 1011.4 1011.4 0.0
14/12:30pm 23.8 19.9 8.6 38 8.1 NNW 19 30 10 16 1011.9 1011.9 0.0
14/12:00pm 26.8 19.5 4.6 24 11.3 N 32 44 17 24 1011.8 1011.8 0.0
14/11:30am 23.9 18.5 7.9 36 8.5 NE 26 33 14 18 1012.4 1012.4 0.0
14/11:00am 23.1 17.6 7.6 37 8.1 NNE 26 33 14 18 1013.0 1013.0 0.0
14/10:30am 21.3 16.2 9.2 46 6.4 NNE 26 37 14 20 1013.6 1013.6 0.0
14/10:00am 20.1 15.1 9.7 51 5.6 NNE 26 37 14 20 1014.3 1014.3 0.0
14/09:30am 19.1 14.0 9.3 53 5.2 NE 26 35 14 19 1014.9 1014.9 0.0
14/09:00am 18.7 14.7 8.9 53 5.1 NE 20 30 11 16 1015.5 1015.5 0.2
14/08:30am 17.3 13.7 10.0 62 3.9 NNE 19 26 10 14 1016.1 1016.1 0.2
14/08:00am 15.8 11.6 9.9 68 3.1 NNE 22 26 12 14 1016.1 1016.1 0.2
14/07:30am 14.8 10.6 9.8 72 2.6 NE 22 26 12 14 1016.0 1016.0 0.2
14/07:00am 13.0 9.3 10.0 82 1.5 NNE 20 26 11 14 1015.6 1015.6 0.2

Other Formats:

Comma delimited format used in spreadsheet applications
http://www.bom.gov.au/fwo/IDS60801/IDS60801.94658.axf

JavaScript Object Notation format (JSON) in row-major order
http://www.bom.gov.au/fwo/IDS60801/IDS60801.94658.json